East Berne, NY

10:08 PM EST on November 27, 2014 (GMT -0500)
Remley Lane - 1760' | Change Station
CLOSE
Current Station
Personal Weather Station
Location: Westerlo, NY
Elevation: 1760 ft
Nearby Weather Stations

Elev 1760 ft 42.58 °N, 74.07 °W | Updated 2 minutes ago

Overcast
Overcast
22.5 °F
Feels Like 14 °F
N
7.0
Wind Variable Wind from NW
Gusts 12.0 mph

Today
High -- | Low -- °F
--% Chance of Precip.
Yesterday
High -- | Low -- °F
Precip. -- in
7:02 AM 4:25 PM
Waxing Crescent, 35% visible
Pressure 30.07 in
Visibility 4.0 miles
Clouds Few 600 ft
Overcast 1600 ft
Windchill 14 °F
Dew Point 21 °F
Humidity 95%
Rainfall 0.00 in
Snow Depth Not available.
UV 0 out of 12
Pollen .10 out of 12
Air Quality Not available.
Flu Activity Not available.
METAR KALB 280251Z 35003KT 4SM -SN BR FEW006 OVC016 M02/M03 A3006 RMK AO2 SLP181 P0001 60003 T10171033 51007

More Conditions Fewer Conditions

Pressure 30.07 in
Visibility 4.0 miles
Clouds Few 600 ft
Overcast 1600 ft
Windchill 14 °F
Dew Point 21 °F
Humidity 95%
Rainfall 0.00 in
Snow Depth Not available.
UV 0 out of 12
Pollen .10 out of 12
Air Quality Not available.
Flu Activity Not available.
METAR KALB 280251Z 35003KT 4SM -SN BR FEW006 OVC016 M02/M03 A3006 RMK AO2 SLP181 P0001 60003 T10171033 51007

More Conditions Fewer Conditions

10-Day Weather Forecast

Almanac

Astronomy

Nov. 27, 2014 Rise Set
Actual Time
Civil Twilight
Nautical Twilight
Astronomical Twilight
Moon
Length of Visible Light
Length of Day
Tomorrow will be .
, % of the Moon is Illuminated

Today's Extremes

State Highs State Lows

Community

WunderPhotos

Upload Photos

1,774,166 photos uploaded!

WunderBlogs® & News

Nearby

Air Quality

  Air Quality AQ Index Pollutant
Not available.

Snow Depth

Station Depth Elevation

Earthquake Activity

City Distance Mag. Time & Date
Minimum magnitude displayed is 2.5.

Coastal Water Temperatures

Place Temperature

Nearby Weather Stations